Huvudsida
METAR-TAF:

METAR-TAF

Flygplatser :

Rørviks flygplats. Ryum

Rørvik, Norge

latitud: 64-50N, longitud: 011-09E, höjd: 4 m

Aktuellt väderrapport

Denna rapport gjordes för 14 minuter sedan, klockan 19:20 UTC
Vind 15 kt från sydväst
Temperatur 11°C
Fuktighet 94%
Tryck 1022 hPa
Sikt 10 km eller mer
Brutna moln på en höjd av 800 ft

METAR: ENRM 251920Z 22015KT 9999 BKN008 11/10 Q1022

Tid: 21:34 (19:34 UTC)

Väderprognos

Denna rapport gjordes för 26 timmar och 34 minuter sedan, klockan 17:00 UTC
Prognos gäller från 24 kl. 18 UTC till 24 kl. 21 UTC
Vind 22 kt från syd/sydväst
Sikt: 4000 m
Brutna moln på en höjd av 800 ft
lätt duggregn, regn
Temporärt
från 24 kl. 18 UTC till 24 kl. 21 UTC
Sikt: 2000 m
Brutna moln på en höjd av 300 ft
fuktdis

TAF: ENRM 241700Z 2418/2421 21022KT 4000 -DZRA BKN008 TEMPO 2418/2421 2000 BR BKN003

Aktuella väderrapporter och prognoser från 4000 flygplatser (METAR- och TAF-rapporter).

De tillgängliga stationerna syns som gula och röda prickar på kartan.

För musen över prickarna för att se namnen på stationerna.

Klicka sedan för att få väderrapporter och prognoser.

För att ändra kartan: Klicka på de gröna knapparna med ett svart kors på för att zooma in; den gröna knappen med ett streck på för att zooma ut; eller på de gröna pilarna för angränsande kartor.


METAR-TAF: